Time;durP1;ratioP1;P1;durP2;ratioP2;P2;SDS_P1;SDS_P2;PMS_P1;PMS_P2;Temp;Humidity;BMP_temperature;BMP_pressure;BME280_temperature;BME280_humidity;BME280_pressure;Samples;Min_cycle;Max_cycle;Signal;HPM_P1;HPM_P2
2022/12/13 00:00:25;;;;;;;12.93;7.53;;;-6.90;92.60;;;;;;5004005;28;20326;-85
2022/12/13 00:02:51;;;;;;;11.87;7.57;;;-6.40;92.70;;;;;;5010793;28;20294;-84
2022/12/13 00:05:20;;;;;;;11.73;7.13;;;-6.40;92.70;;;;;;5008866;28;20286;-84
2022/12/13 00:07:48;;;;;;;13.13;7.37;;;-6.30;92.40;;;;;;5010243;28;20298;-84
2022/12/13 00:10:15;;;;;;;12.27;7.07;;;-6.30;92.10;;;;;;5005633;28;20212;-84
2022/12/13 00:12:42;;;;;;;13.67;7.07;;;-6.30;92.00;;;;;;5022604;28;20235;-84
2022/12/13 00:15:10;;;;;;;17.07;7.83;;;-6.40;92.20;;;;;;5008858;28;20636;-85
2022/12/13 00:17:37;;;;;;;12.00;7.47;;;-6.50;92.70;;;;;;5010439;28;20203;-85
2022/12/13 00:20:05;;;;;;;12.53;7.47;;;-6.90;92.60;;;;;;5010158;28;20752;-84
2022/12/13 00:22:33;;;;;;;13.20;6.93;;;-6.60;92.60;;;;;;5010989;28;20213;-85
2022/12/13 00:25:00;;;;;;;12.20;7.43;;;-6.90;92.60;;;;;;5006807;28;20217;-85
2022/12/13 00:27:27;;;;;;;13.17;7.13;;;-6.50;92.70;;;;;;5007731;28;20264;-84
2022/12/13 00:29:54;;;;;;;12.20;7.10;;;-6.50;92.00;;;;;;5007222;28;20697;-85
2022/12/13 00:32:21;;;;;;;12.67;7.40;;;-6.40;91.60;;;;;;5006807;28;20199;-84
2022/12/13 00:34:48;;;;;;;15.63;8.00;;;-6.30;91.70;;;;;;5006113;28;20211;-84
2022/12/13 00:37:15;;;;;;;12.53;7.60;;;-6.50;91.50;;;;;;5005248;28;20552;-84
2022/12/13 00:39:43;;;;;;;13.73;8.13;;;-6.50;91.30;;;;;;5001688;28;20312;-84
2022/12/13 00:42:10;;;;;;;15.67;8.67;;;-6.70;91.50;;;;;;5021026;28;20213;-84
2022/12/13 00:44:42;;;;;;;12.47;7.70;;;-6.50;91.90;;;;;;5005975;28;20298;-84
2022/12/13 00:47:12;;;;;;;15.97;8.23;;;-6.60;92.70;;;;;;5007713;28;20199;-84
2022/12/13 00:49:39;;;;;;;15.97;8.10;;;-7.00;92.60;;;;;;5003591;28;20226;-84
2022/12/13 00:52:06;;;;;;;13.90;7.60;;;-6.60;92.40;;;;;;5005548;28;20212;-84
2022/12/13 00:54:33;;;;;;;14.17;7.87;;;-6.70;91.80;;;;;;5005787;28;20230;-84
2022/12/13 00:57:01;;;;;;;13.83;8.47;;;-6.70;92.20;;;;;;5003099;28;20204;-84
2022/12/13 00:59:30;;;;;;;18.73;8.10;;;-7.00;92.40;;;;;;4998978;28;20242;-84
2022/12/13 01:02:00;;;;;;;14.50;8.10;;;-7.00;92.60;;;;;;5003747;28;20290;-84
2022/12/13 01:04:27;;;;;;;13.33;7.67;;;-7.10;92.50;;;;;;5005317;28;20202;-84
2022/12/13 01:06:55;;;;;;;14.57;7.90;;;-7.10;92.50;;;;;;5006936;28;20209;-84
2022/12/13 01:09:25;;;;;;;13.53;7.07;;;-7.50;92.50;;;;;;5005532;28;20211;-84
2022/12/13 01:11:57;;;;;;;13.30;7.97;;;-7.20;92.50;;;;;;5007620;28;20218;-84
2022/12/13 01:14:26;;;;;;;15.20;8.10;;;-7.20;92.50;;;;;;5005944;28;20217;-85
2022/12/13 01:16:54;;;;;;;12.63;7.47;;;-7.20;92.50;;;;;;5001746;28;20200;-84
2022/12/13 01:19:21;;;;;;;13.70;7.40;;;-6.90;92.60;;;;;;5004711;28;20239;-84
2022/12/13 01:21:49;;;;;;;11.80;7.13;;;-7.00;91.70;;;;;;5007080;28;20300;-84
2022/12/13 01:24:19;;;;;;;12.07;7.37;;;-7.00;92.00;;;;;;5002634;28;20229;-84
2022/12/13 01:26:46;;;;;;;13.57;7.43;;;-7.10;92.30;;;;;;5007434;28;20204;-84
2022/12/13 01:29:13;;;;;;;13.10;7.33;;;-7.00;91.70;;;;;;5004263;28;20206;-84
2022/12/13 01:31:42;;;;;;;13.03;7.70;;;-7.20;91.90;;;;;;5003080;28;21463;-84
2022/12/13 01:34:14;;;;;;;14.23;6.87;;;-7.30;92.10;;;;;;5003019;28;20210;-84
2022/12/13 01:36:44;;;;;;;11.63;7.20;;;-7.20;92.20;;;;;;5000037;28;20334;-84
2022/12/13 01:39:19;;;;;;;16.07;7.40;;;-7.20;92.50;;;;;;5005236;28;20719;-83
2022/12/13 01:41:47;;;;;;;13.77;7.77;;;-7.40;92.50;;;;;;5008996;28;20349;-84
2022/12/13 01:44:51;;;;;;;11.57;7.37;;;-7.30;92.50;;;;;;5005344;28;20201;-84
2022/12/13 01:47:23;;;;;;;15.13;7.67;;;-7.40;92.50;;;;;;5003614;28;20198;-84
2022/12/13 01:49:51;;;;;;;12.63;6.77;;;-7.40;92.80;;;;;;5002238;28;20297;-84
2022/12/13 01:52:25;;;;;;;12.93;7.17;;;-7.20;92.50;;;;;;5004229;28;20276;-84
2022/12/13 01:54:57;;;;;;;9.80;6.83;;;-6.90;92.20;;;;;;5009635;28;20228;-84
2022/12/13 01:57:27;;;;;;;12.07;7.47;;;-7.40;91.30;;;;;;5009308;28;20297;-84
2022/12/13 01:59:55;;;;;;;11.10;6.90;;;-7.00;91.20;;;;;;5003835;28;20253;-84
2022/12/13 02:02:23;;;;;;;12.17;6.93;;;-7.10;91.80;;;;;;5007607;28;20207;-84
2022/12/13 02:04:56;;;;;;;11.53;7.10;;;-7.20;92.30;;;;;;5008864;28;20644;-84
2022/12/13 02:07:27;;;;;;;15.20;7.37;;;-6.90;92.20;;;;;;5009220;28;20237;-84
2022/12/13 02:10:10;;;;;;;11.87;7.33;;;-7.00;91.70;;;;;;5009378;28;20638;-84
2022/12/13 02:12:39;;;;;;;11.70;7.67;;;-7.00;91.50;;;;;;5008631;28;20291;-84
2022/12/13 02:15:10;;;;;;;13.00;7.63;;;-7.20;91.80;;;;;;5011588;28;20242;-84
2022/12/13 02:18:10;;;;;;;14.03;7.67;;;-7.10;92.50;;;;;;5009427;28;20205;-84
2022/12/13 02:21:02;;;;;;;15.97;8.30;;;-7.10;92.50;;;;;;5011038;28;20598;-83
2022/12/13 02:23:55;;;;;;;13.47;8.33;;;-7.40;92.30;;;;;;5010296;28;20282;-84
2022/12/13 02:26:57;;;;;;;14.73;7.87;;;-7.30;92.50;;;;;;5006896;28;20240;-84
2022/12/13 02:29:57;;;;;;;12.87;7.93;;;-7.20;93.20;;;;;;5005218;28;20248;-84
2022/12/13 02:32:32;;;;;;;15.23;7.53;;;-7.30;93.00;;;;;;5007646;28;20208;-84
2022/12/13 02:35:05;;;;;;;13.60;7.80;;;-7.30;92.90;;;;;;5012013;28;20602;-84
2022/12/13 02:37:42;;;;;;;15.37;9.40;;;-7.20;93.10;;;;;;5006303;28;20211;-84
2022/12/13 02:40:17;;;;;;;15.97;8.50;;;-7.10;93.10;;;;;;5003433;28;20219;-84
2022/12/13 02:43:01;;;;;;;14.30;8.70;;;-7.20;93.20;;;;;;5006318;28;20835;-84
2022/12/13 02:45:33;;;;;;;15.97;9.33;;;-7.10;93.40;;;;;;5004534;28;20206;-85
2022/12/13 02:48:03;;;;;;;16.73;8.70;;;-7.30;93.30;;;;;;5009739;28;20285;-85
2022/12/13 02:50:32;;;;;;;15.30;8.37;;;-7.20;93.60;;;;;;5008488;28;20217;-84
2022/12/13 02:53:00;;;;;;;14.73;9.50;;;-7.30;93.80;;;;;;5014491;28;20213;-84
2022/12/13 02:55:27;;;;;;;15.20;9.27;;;-7.10;93.90;;;;;;5010319;28;20210;-84
2022/12/13 02:57:54;;;;;;;17.33;9.50;;;-7.30;93.60;;;;;;5004704;28;20214;-84
2022/12/13 03:00:27;;;;;;;18.00;9.80;;;-7.10;93.60;;;;;;5008060;28;20341;-84
2022/12/13 03:03:12;;;;;;;18.00;9.20;;;-7.20;93.50;;;;;;5004093;28;20351;-84
2022/12/13 03:08:55;;;;;;;14.60;9.23;;;-7.30;93.70;;;;;;5005696;28;20226;-84
2022/12/13 03:11:25;;;;;;;17.60;9.07;;;-7.30;93.70;;;;;;5007830;28;20238;-84
2022/12/13 03:13:53;;;;;;;15.40;9.30;;;-7.20;93.30;;;;;;5012041;28;20204;-84
2022/12/13 03:16:29;;;;;;;14.57;8.73;;;-7.00;92.90;;;;;;5008685;28;20302;-84
2022/12/13 03:19:00;;;;;;;13.77;9.00;;;-7.20;92.80;;;;;;5008403;28;20575;-84
2022/12/13 03:21:27;;;;;;;14.17;8.87;;;-7.20;92.90;;;;;;5008596;28;20245;-84
2022/12/13 03:23:54;;;;;;;13.93;9.17;;;-7.10;92.50;;;;;;5003385;28;20208;-84
2022/12/13 03:26:24;;;;;;;14.10;8.87;;;-7.00;92.60;;;;;;5003882;28;20207;-85
2022/12/13 03:28:52;;;;;;;16.20;9.20;;;-6.90;92.60;;;;;;5008190;28;20244;-84
2022/12/13 03:31:24;;;;;;;14.80;9.33;;;-7.30;92.50;;;;;;4997757;28;20661;-84
2022/12/13 03:33:51;;;;;;;18.33;9.50;;;-7.10;92.50;;;;;;5002319;28;20275;-84
2022/12/13 03:36:20;;;;;;;17.07;9.27;;;-7.10;92.50;;;;;;5006107;28;20292;-84
2022/12/13 03:38:47;;;;;;;13.67;8.90;;;-7.10;92.50;;;;;;5002515;28;20211;-84
2022/12/13 03:41:16;;;;;;;16.73;9.53;;;-7.00;92.60;;;;;;5005657;28;20222;-84
2022/12/13 03:43:44;;;;;;;14.10;8.47;;;-7.30;92.50;;;;;;5007186;28;20202;-84
2022/12/13 03:46:11;;;;;;;14.77;9.27;;;-7.50;92.50;;;;;;5003937;28;20198;-84
2022/12/13 03:48:39;;;;;;;15.80;9.53;;;-7.30;92.50;;;;;;5004707;28;20314;-84
2022/12/13 03:51:12;;;;;;;15.17;8.97;;;-7.50;92.40;;;;;;5006508;28;20297;-84
2022/12/13 03:53:42;;;;;;;15.77;9.07;;;-7.60;92.40;;;;;;5008982;28;20317;-84
2022/12/13 03:56:09;;;;;;;14.03;8.67;;;-7.60;92.60;;;;;;5005701;28;20653;-84
2022/12/13 03:58:36;;;;;;;16.70;8.90;;;-7.40;92.50;;;;;;5010520;28;20213;-84
2022/12/13 04:01:04;;;;;;;16.90;8.80;;;-7.40;92.50;;;;;;5008116;28;20312;-85
2022/12/13 04:03:31;;;;;;;12.03;8.93;;;-7.50;92.40;;;;;;5005434;28;20310;-84
2022/12/13 04:05:58;;;;;;;16.50;8.77;;;-7.50;92.40;;;;;;5007176;28;20221;-85
2022/12/13 04:08:25;;;;;;;16.30;9.23;;;-7.60;92.40;;;;;;5003987;28;20302;-84
2022/12/13 04:10:54;;;;;;;17.40;9.97;;;-7.60;92.50;;;;;;5002875;28;20293;-85
2022/12/13 04:13:32;;;;;;;13.30;8.63;;;-7.60;92.40;;;;;;5005211;28;20274;-84
2022/12/13 04:15:59;;;;;;;14.13;9.43;;;-7.60;92.60;;;;;;5009988;28;20206;-84
2022/12/13 04:18:31;;;;;;;16.50;9.23;;;-7.40;92.50;;;;;;5004722;28;20293;-84
2022/12/13 04:20:58;;;;;;;15.90;8.63;;;-7.60;92.40;;;;;;5009872;28;20233;-84
2022/12/13 04:23:25;;;;;;;16.70;9.50;;;-7.50;92.70;;;;;;5006843;28;20208;-84
2022/12/13 04:25:53;;;;;;;14.47;8.97;;;-7.80;92.60;;;;;;5007785;28;20751;-84
2022/12/13 04:28:20;;;;;;;16.70;9.27;;;-7.60;93.00;;;;;;5005280;28;20202;-84
2022/12/13 04:30:47;;;;;;;16.77;9.13;;;-7.70;93.00;;;;;;5004778;28;20292;-84
2022/12/13 04:33:14;;;;;;;18.37;9.13;;;-7.80;93.40;;;;;;5002290;28;20206;-84
2022/12/13 04:35:41;;;;;;;16.23;9.43;;;-7.70;92.90;;;;;;5006063;28;20204;-84
2022/12/13 04:38:13;;;;;;;16.47;9.43;;;-7.80;93.00;;;;;;5003756;28;20206;-84
2022/12/13 04:40:41;;;;;;;17.13;9.67;;;-7.90;93.40;;;;;;5006532;28;20635;-84
2022/12/13 04:43:14;;;;;;;16.03;9.10;;;-8.00;93.50;;;;;;5003158;28;20209;-84
2022/12/13 04:45:41;;;;;;;16.30;9.40;;;-7.90;93.40;;;;;;5000973;28;20200;-84
2022/12/13 04:48:08;;;;;;;13.53;8.47;;;-7.90;93.30;;;;;;5006617;28;20210;-84
2022/12/13 04:50:35;;;;;;;14.97;8.67;;;-7.80;93.50;;;;;;5002089;28;20302;-85
2022/12/13 04:53:03;;;;;;;14.67;8.43;;;-7.80;93.10;;;;;;5004775;28;20209;-84
2022/12/13 04:55:30;;;;;;;15.40;8.37;;;-7.70;93.10;;;;;;5011739;28;20296;-84
2022/12/13 04:57:57;;;;;;;15.03;9.03;;;-7.60;92.60;;;;;;5006306;28;20212;-84
2022/12/13 05:00:25;;;;;;;16.30;9.50;;;-7.80;92.40;;;;;;5006433;28;20319;-85
2022/12/13 05:03:00;;;;;;;13.47;8.57;;;-7.90;92.60;;;;;;5007119;28;20287;-84
2022/12/13 05:05:27;;;;;;;14.77;8.87;;;-7.80;92.90;;;;;;5010084;28;20208;-84
2022/12/13 05:07:55;;;;;;;14.33;8.50;;;-7.70;92.90;;;;;;5010393;28;20305;-84
2022/12/13 05:10:22;;;;;;;13.00;8.47;;;-7.80;92.40;;;;;;5006810;28;20216;-85
2022/12/13 05:12:50;;;;;;;14.47;8.60;;;-7.80;92.40;;;;;;5006815;28;20316;-84
2022/12/13 05:15:17;;;;;;;13.83;9.10;;;-7.70;92.40;;;;;;5008425;28;20229;-83
2022/12/13 05:17:45;;;;;;;13.63;8.43;;;-7.70;92.40;;;;;;5007058;28;20235;-84
2022/12/13 05:20:12;;;;;;;15.50;9.10;;;-7.60;92.40;;;;;;5007867;28;20221;-84
2022/12/13 05:22:39;;;;;;;15.97;8.43;;;-7.80;92.40;;;;;;5007275;28;20295;-84
2022/12/13 05:25:07;;;;;;;15.13;9.13;;;-7.60;92.40;;;;;;5009162;28;20207;-84
2022/12/13 05:27:34;;;;;;;14.07;9.10;;;-7.70;92.40;;;;;;5005065;28;20319;-84
2022/12/13 05:30:01;;;;;;;15.83;9.27;;;-7.90;92.60;;;;;;5005404;28;20209;-84
2022/12/13 05:32:48;;;;;;;16.47;9.10;;;-7.90;92.90;;;;;;5005655;28;20202;-84
2022/12/13 05:35:18;;;;;;;15.07;9.57;;;-7.80;93.20;;;;;;5007155;28;20299;-85
2022/12/13 05:37:46;;;;;;;13.63;8.40;;;-7.60;92.40;;;;;;5008674;28;20292;-84
2022/12/13 05:40:14;;;;;;;14.73;8.90;;;-7.30;92.50;;;;;;5005493;28;20224;-84
2022/12/13 05:42:41;;;;;;;13.13;7.97;;;-7.30;92.50;;;;;;5006081;28;20221;-84
2022/12/13 05:45:09;;;;;;;14.40;8.40;;;-7.40;92.10;;;;;;4999683;28;20218;-83
2022/12/13 05:47:36;;;;;;;15.53;8.77;;;-7.50;91.80;;;;;;5005197;28;20213;-84
2022/12/13 05:50:05;;;;;;;13.27;8.47;;;-7.50;92.00;;;;;;5007275;28;20213;-83
2022/12/13 05:52:32;;;;;;;12.23;8.33;;;-7.80;92.40;;;;;;5004955;28;20209;-83
2022/12/13 05:54:59;;;;;;;13.87;8.50;;;-7.70;92.40;;;;;;5005818;28;20714;-83
2022/12/13 05:57:26;;;;;;;15.70;8.20;;;-7.70;92.50;;;;;;5002606;28;20212;-83
2022/12/13 05:59:52;;;;;;;12.73;7.83;;;-7.70;92.80;;;;;;5008363;28;20215;-83
2022/12/13 06:02:19;;;;;;;14.00;8.70;;;-7.70;92.40;;;;;;5005295;28;20336;-83
2022/12/13 06:04:46;;;;;;;16.00;9.07;;;-7.80;92.40;;;;;;5005024;28;20201;-83
2022/12/13 06:07:15;;;;;;;14.50;8.73;;;-7.70;92.40;;;;;;4998781;28;20196;-86
2022/12/13 06:09:42;;;;;;;13.73;7.77;;;-7.80;92.40;;;;;;5005752;28;20208;-83
2022/12/13 06:12:10;;;;;;;13.77;8.00;;;-7.50;92.40;;;;;;5003255;28;20942;-83
2022/12/13 06:14:37;;;;;;;14.90;8.30;;;-7.80;92.40;;;;;;4999242;28;20278;-83
2022/12/13 06:17:04;;;;;;;12.87;7.90;;;-7.60;92.40;;;;;;4997010;28;20670;-87
2022/12/13 06:19:31;;;;;;;14.90;7.53;;;-7.70;92.40;;;;;;5001134;28;20510;-84
2022/12/13 06:21:58;;;;;;;13.80;7.80;;;-7.80;92.40;;;;;;5017456;28;20226;-85
2022/12/13 06:24:27;;;;;;;13.53;7.87;;;-7.80;92.40;;;;;;5000840;28;20294;-85
2022/12/13 06:26:54;;;;;;;13.87;8.20;;;-7.80;92.40;;;;;;5004583;28;20205;-85
2022/12/13 06:29:24;;;;;;;15.63;8.37;;;-7.80;92.40;;;;;;5003339;28;20309;-85
2022/12/13 06:31:56;;;;;;;15.43;7.77;;;-7.80;92.40;;;;;;5001938;28;20218;-85
2022/12/13 06:34:23;;;;;;;14.80;8.07;;;-7.80;92.40;;;;;;5003905;28;20573;-85
2022/12/13 06:36:50;;;;;;;16.27;8.57;;;-7.70;92.40;;;;;;5004824;28;20205;-86
2022/12/13 06:39:18;;;;;;;13.67;8.23;;;-7.80;92.40;;;;;;5000789;28;20204;-85
2022/12/13 06:41:46;;;;;;;13.50;8.00;;;-7.80;92.40;;;;;;4999073;28;20243;-86
2022/12/13 06:44:13;;;;;;;17.13;7.90;;;-7.90;92.40;;;;;;5003416;28;20747;-83
2022/12/13 06:46:41;;;;;;;18.20;8.23;;;-7.90;92.60;;;;;;5000910;28;20225;-83
2022/12/13 06:49:08;;;;;;;15.97;8.70;;;-8.00;92.30;;;;;;5008663;28;20252;-83
2022/12/13 06:51:35;;;;;;;21.10;8.50;;;-8.00;92.70;;;;;;5008577;28;20244;-82
2022/12/13 06:54:03;;;;;;;19.50;9.27;;;-7.80;92.40;;;;;;5008817;28;20234;-84
2022/12/13 06:56:30;;;;;;;17.10;8.90;;;-7.80;92.40;;;;;;5006111;28;20218;-85
2022/12/13 06:58:59;;;;;;;18.30;9.33;;;-7.80;92.90;;;;;;5006934;28;20296;-86
2022/12/13 07:01:26;;;;;;;18.53;8.90;;;-7.90;92.90;;;;;;5010466;28;20278;-84
2022/12/13 07:03:56;;;;;;;15.60;8.53;;;-8.00;93.00;;;;;;5008037;28;20221;-83
2022/12/13 07:06:25;;;;;;;15.33;8.90;;;-8.00;93.20;;;;;;5009234;28;20210;-84
2022/12/13 07:08:54;;;;;;;18.70;8.90;;;-7.80;92.40;;;;;;5007637;28;20218;-83
2022/12/13 07:11:22;;;;;;;17.53;9.03;;;-7.90;92.60;;;;;;5006636;28;20201;-82
2022/12/13 07:13:49;;;;;;;14.37;8.97;;;-7.80;92.20;;;;;;5002789;28;20299;-83
2022/12/13 07:16:18;;;;;;;16.13;9.70;;;-7.80;92.20;;;;;;4998747;28;20361;-82
2022/12/13 07:18:45;;;;;;;17.60;9.80;;;-7.90;92.60;;;;;;5000890;28;20215;-83
2022/12/13 07:21:13;;;;;;;19.13;9.33;;;-8.00;92.30;;;;;;4995991;28;20672;-83
2022/12/13 07:23:41;;;;;;;15.60;9.13;;;-7.90;92.40;;;;;;4999765;28;20666;-82
2022/12/13 07:26:08;;;;;;;21.87;9.87;;;-8.00;92.30;;;;;;5005544;28;20204;-83
2022/12/13 07:28:36;;;;;;;18.60;8.97;;;-7.70;92.10;;;;;;5012123;28;20209;-84
2022/12/13 07:31:05;;;;;;;20.70;10.10;;;-7.70;91.70;;;;;;5002029;28;20635;-83
2022/12/13 07:33:35;;;;;;;15.57;8.90;;;-7.60;91.70;;;;;;5002644;28;20296;-85
2022/12/13 07:36:03;;;;;;;20.07;9.33;;;-7.90;91.80;;;;;;5009227;28;20229;-84
2022/12/13 07:38:30;;;;;;;20.93;9.87;;;-7.80;92.40;;;;;;5008714;28;20204;-85
2022/12/13 07:40:57;;;;;;;19.57;11.43;;;-7.90;92.40;;;;;;4995918;28;20730;-84
2022/12/13 07:43:25;;;;;;;16.53;9.50;;;-8.00;92.30;;;;;;4998716;28;20300;-84
2022/12/13 07:45:52;;;;;;;18.00;9.93;;;-8.10;92.30;;;;;;4998721;28;20293;-84
2022/12/13 07:48:19;;;;;;;17.73;10.43;;;-7.90;92.40;;;;;;5010467;28;20294;-84
2022/12/13 07:50:48;;;;;;;18.87;9.87;;;-7.80;92.10;;;;;;5006937;28;20214;-85
2022/12/13 07:53:15;;;;;;;20.53;10.87;;;-7.90;92.40;;;;;;5003841;28;20225;-84
2022/12/13 07:55:42;;;;;;;16.20;9.57;;;-7.70;92.40;;;;;;4996500;28;20261;-85
2022/12/13 07:58:10;;;;;;;18.43;9.87;;;-7.80;92.40;;;;;;4998748;28;20207;-83
2022/12/13 08:00:37;;;;;;;15.97;9.50;;;-7.60;91.80;;;;;;4995718;28;20676;-83
2022/12/13 08:03:05;;;;;;;15.13;9.30;;;-7.30;91.40;;;;;;5010616;28;20202;-83
2022/12/13 08:05:32;;;;;;;17.13;9.50;;;-7.60;91.00;;;;;;5003210;28;20211;-82
2022/12/13 08:08:03;;;;;;;18.57;9.10;;;-7.60;91.40;;;;;;5001266;28;20289;-82
2022/12/13 08:10:30;;;;;;;20.13;9.60;;;-7.40;90.80;;;;;;5003072;28;20206;-82
2022/12/13 08:12:58;;;;;;;14.17;9.17;;;-7.20;90.00;;;;;;5001853;28;20306;-83
2022/12/13 08:15:25;;;;;;;14.80;9.10;;;-7.20;89.50;;;;;;5004914;28;20727;-84
2022/12/13 08:17:55;;;;;;;14.83;9.43;;;-7.10;90.60;;;;;;5008008;28;20216;-83
2022/12/13 08:20:23;;;;;;;16.43;9.30;;;-7.30;90.60;;;;;;5011074;28;20214;-83
2022/12/13 08:22:55;;;;;;;15.27;8.33;;;-7.00;90.50;;;;;;5003708;28;20228;-84
2022/12/13 08:25:26;;;;;;;17.10;9.77;;;-6.90;90.30;;;;;;5004440;28;20203;-83
2022/12/13 08:27:53;;;;;;;19.00;9.90;;;-6.70;89.00;;;;;;5003813;28;20297;-85
2022/12/13 08:30:20;;;;;;;18.47;9.30;;;-6.70;89.00;;;;;;5005066;28;20291;-84
2022/12/13 08:32:49;;;;;;;16.17;9.10;;;-6.80;88.10;;;;;;5001245;28;20298;-84
2022/12/13 08:35:16;;;;;;;17.60;9.33;;;-6.40;88.20;;;;;;5003870;28;20653;-84
2022/12/13 08:37:43;;;;;;;16.67;9.20;;;-6.70;88.20;;;;;;5006846;28;20207;-84
2022/12/13 08:40:12;;;;;;;17.97;9.40;;;-6.60;88.70;;;;;;5004370;28;20214;-84
2022/12/13 08:42:40;;;;;;;17.80;9.43;;;-6.50;87.50;;;;;;5007305;28;20330;-85
2022/12/13 08:45:08;;;;;;;17.97;9.43;;;-6.30;87.90;;;;;;4997545;28;20218;-84
2022/12/13 08:47:37;;;;;;;15.60;9.13;;;-6.00;87.40;;;;;;5014582;28;20602;-85
2022/12/13 08:50:25;;;;;;;16.93;9.37;;;-5.60;85.70;;;;;;5009006;28;20346;-85
2022/12/13 08:53:06;;;;;;;18.73;9.53;;;-4.80;81.10;;;;;;5011851;28;20215;-84
2022/12/13 08:55:33;;;;;;;14.70;8.77;;;-4.20;74.60;;;;;;5002781;28;20270;-84
2022/12/13 08:58:07;;;;;;;14.23;8.70;;;-4.00;67.50;;;;;;5008047;28;20199;-83
2022/12/13 09:00:44;;;;;;;16.73;9.10;;;-3.80;63.10;;;;;;5007069;28;20640;-84
2022/12/13 09:03:48;;;;;;;14.63;8.73;;;-3.70;60.90;;;;;;5006169;28;20865;-82
2022/12/13 09:07:00;;;;;;;16.30;8.73;;;-3.70;60.70;;;;;;5006211;28;20299;-80
2022/12/13 09:09:28;;;;;;;14.83;9.00;;;-3.90;66.10;;;;;;5008993;28;20241;-84
2022/12/13 09:11:55;;;;;;;16.23;9.97;;;-3.50;60.90;;;;;;4998814;28;20210;-82
2022/12/13 09:14:26;;;;;;;17.67;9.43;;;-3.20;62.60;;;;;;5000986;28;20345;-83
2022/12/13 09:16:53;;;;;;;15.73;8.70;;;-2.90;61.50;;;;;;5006978;28;20200;-84
2022/12/13 09:19:48;;;;;;;12.97;8.50;;;-2.20;54.20;;;;;;5010221;28;20278;-82
2022/12/13 09:22:20;;;;;;;14.10;8.77;;;-1.80;44.80;;;;;;5013903;28;20203;-83
2022/12/13 09:24:55;;;;;;;11.23;8.13;;;-1.50;41.20;;;;;;4998811;28;20215;-84
2022/12/13 09:28:12;;;;;;;14.40;8.80;;;-0.90;38.90;;;;;;4999883;28;20202;-84
2022/12/13 09:30:45;;;;;;;13.63;9.13;;;-0.50;34.40;;;;;;5000625;28;20202;-82
2022/12/13 09:36:37;;;;;;;15.13;8.83;;;-0.70;33.70;;;;;;5008634;28;20236;-84
2022/12/13 09:46:36;;;;;;;15.43;9.00;;;-1.50;37.10;;;;;;5009479;28;20647;-82
2022/12/13 09:49:11;;;;;;;12.57;8.30;;;-1.70;37.00;;;;;;5011876;28;20234;-80
2022/12/13 09:51:53;;;;;;;14.00;8.23;;;-2.10;39.80;;;;;;5006092;28;20321;-81
2022/12/13 09:54:23;;;;;;;19.40;9.13;;;-2.20;42.70;;;;;;5000218;28;20219;-82
2022/12/13 09:57:16;;;;;;;14.23;9.03;;;-2.50;43.80;;;;;;5008318;28;20206;-84
2022/12/13 10:00:04;;;;;;;15.83;8.53;;;-2.70;50.00;;;;;;5003904;28;20619;-83
2022/12/13 10:03:18;;;;;;;16.30;8.90;;;-3.10;50.90;;;;;;5007821;28;20298;-84
2022/12/13 10:06:36;;;;;;;15.07;8.67;;;-3.20;53.90;;;;;;5005290;28;20197;-83
2022/12/13 10:09:08;;;;;;;16.70;8.77;;;-3.50;58.80;;;;;;5003033;28;20274;-84
2022/12/13 10:11:35;;;;;;;17.23;9.27;;;-3.60;61.10;;;;;;5011448;28;20538;-83
2022/12/13 10:14:07;;;;;;;14.07;8.70;;;-3.80;62.90;;;;;;5003897;28;20279;-83
2022/12/13 10:16:43;;;;;;;15.97;9.17;;;-3.90;68.30;;;;;;5009788;28;20279;-82
2022/12/13 10:19:23;;;;;;;14.30;9.23;;;-3.70;67.00;;;;;;5006731;28;20644;-82
2022/12/13 10:21:50;;;;;;;14.40;8.87;;;-3.60;68.70;;;;;;5004921;28;20229;-82
2022/12/13 10:24:20;;;;;;;13.70;8.63;;;-3.60;70.10;;;;;;5013073;28;20282;-82
2022/12/13 10:26:49;;;;;;;12.50;7.50;;;-3.70;67.30;;;;;;5023699;28;20191;-83
2022/12/13 10:29:31;;;;;;;12.87;7.67;;;-3.40;67.60;;;;;;5015882;28;20205;-83
2022/12/13 10:32:19;;;;;;;14.57;7.67;;;-3.40;65.30;;;;;;5009677;28;20286;-83
2022/12/13 10:35:21;;;;;;;13.20;7.47;;;-3.20;64.80;;;;;;5003635;28;20218;-83
2022/12/13 10:37:48;;;;;;;12.77;7.13;;;-2.90;61.50;;;;;;5012438;28;20205;-84
2022/12/13 10:40:36;;;;;;;10.13;7.27;;;-2.90;61.40;;;;;;5010163;28;20282;-83
2022/12/13 10:43:08;;;;;;;13.10;7.63;;;-3.00;61.40;;;;;;5012801;28;20217;-83
2022/12/13 10:45:44;;;;;;;12.20;7.77;;;-2.80;59.60;;;;;;5005933;28;20204;-83
2022/12/13 10:48:20;;;;;;;14.63;8.03;;;-3.00;61.40;;;;;;5008468;28;20221;-83
2022/12/13 10:51:07;;;;;;;12.07;7.67;;;-2.80;59.00;;;;;;5007125;28;20205;-83
2022/12/13 10:53:53;;;;;;;12.87;7.67;;;-3.10;61.30;;;;;;5011672;28;20223;-83
2022/12/13 10:57:12;;;;;;;14.40;7.43;;;-2.60;61.80;;;;;;5004678;28;20198;-83
2022/12/13 10:59:40;;;;;;;13.67;8.37;;;-2.60;60.10;;;;;;5014091;28;20278;-81
2022/12/13 11:02:29;;;;;;;11.93;8.33;;;-2.50;58.20;;;;;;5001612;28;20227;-80
2022/12/13 11:05:24;;;;;;;16.43;7.90;;;-2.60;59.70;;;;;;4968878;28;20288;-83
2022/12/13 11:07:51;;;;;;;15.43;8.07;;;-2.80;61.50;;;;;;4962199;28;20282;-83
2022/12/13 11:10:24;;;;;;;13.13;8.20;;;-2.80;61.60;;;;;;4973511;28;20291;-84
2022/12/13 11:13:26;;;;;;;16.03;8.60;;;-2.60;60.50;;;;;;4972218;28;20291;-85
2022/12/13 11:15:57;;;;;;;14.93;8.27;;;-2.80;61.60;;;;;;4973571;28;20290;-84
2022/12/13 11:18:56;;;;;;;13.83;8.03;;;-2.80;61.60;;;;;;4956888;28;20518;-85
2022/12/13 11:22:01;;;;;;;12.73;7.80;;;-2.90;61.50;;;;;;4969697;28;20238;-83
2022/12/13 11:24:42;;;;;;;16.57;8.33;;;-3.00;63.20;;;;;;4970609;28;20197;-84
2022/12/13 11:27:28;;;;;;;13.87;7.70;;;-2.90;63.50;;;;;;4969328;28;20219;-84
2022/12/13 11:30:20;;;;;;;13.10;7.80;;;-3.00;61.40;;;;;;4969351;28;20201;-85
2022/12/13 11:33:18;;;;;;;16.67;7.80;;;-3.70;73.10;;;;;;4967053;28;20235;-84
2022/12/13 11:36:18;;;;;;;19.43;10.03;;;-3.50;74.20;;;;;;4971678;28;20207;-82
2022/12/13 11:38:59;;;;;;;18.10;11.23;;;-3.20;74.30;;;;;;4967773;28;20276;-84
2022/12/13 11:41:54;;;;;;;26.53;12.07;;;-3.10;73.20;;;;;;4977379;28;20227;-83
2022/12/13 11:44:59;;;;;;;19.20;11.43;;;-3.20;75.40;;;;;;5008268;28;20205;-83
2022/12/13 11:47:31;;;;;;;20.63;10.50;;;-3.00;73.00;;;;;;5006418;28;20214;-84
2022/12/13 11:50:04;;;;;;;21.77;11.47;;;-2.90;71.00;;;;;;5010595;28;20240;-83
2022/12/13 11:52:37;;;;;;;24.70;11.87;;;-2.90;72.20;;;;;;5021325;28;20199;-86
2022/12/13 11:55:23;;;;;;;26.77;12.50;;;-3.00;74.10;;;;;;5011015;28;20626;-82
2022/12/13 11:58:18;;;;;;;23.97;12.07;;;-3.00;74.90;;;;;;5009803;28;20286;-84
2022/12/13 12:00:54;;;;;;;20.47;11.33;;;-3.10;73.20;;;;;;5002800;28;20204;-83
2022/12/13 12:03:34;;;;;;;24.43;11.60;;;-3.00;71.50;;;;;;5013466;28;20558;-84
2022/12/13 12:06:22;;;;;;;21.13;11.83;;;-2.80;72.90;;;;;;5013256;28;20199;-84
2022/12/13 12:09:24;;;;;;;24.60;11.50;;;-2.90;71.50;;;;;;5002995;28;20231;-83
2022/12/13 12:12:01;;;;;;;24.90;11.93;;;-3.00;75.50;;;;;;5009956;28;20560;-82
2022/12/13 12:14:39;;;;;;;23.30;11.83;;;-3.10;74.30;;;;;;5010192;28;20209;-82
2022/12/13 12:17:23;;;;;;;22.87;11.73;;;-3.20;75.80;;;;;;5006138;28;20199;-82
2022/12/13 12:19:57;;;;;;;27.50;12.20;;;-3.30;74.80;;;;;;5011514;28;20219;-82
2022/12/13 12:22:37;;;;;;;20.80;12.30;;;-3.40;77.20;;;;;;5005917;28;20223;-82
2022/12/13 12:25:38;;;;;;;25.50;12.23;;;-3.30;77.40;;;;;;5007438;28;20282;-83
2022/12/13 12:28:33;;;;;;;25.10;11.27;;;-3.30;75.20;;;;;;5012615;28;20283;-82
2022/12/13 12:31:34;;;;;;;22.37;11.30;;;-3.20;75.00;;;;;;4998922;28;20596;-81
2022/12/13 12:38:06;;;;;;;20.93;11.50;;;-3.20;75.30;;;;;;5011870;28;20195;-82
2022/12/13 12:41:02;;;;;;;23.83;11.87;;;-3.10;74.70;;;;;;5000698;28;20230;-82
2022/12/13 12:43:54;;;;;;;20.33;11.63;;;-3.10;74.30;;;;;;5010621;28;20262;-82
2022/12/13 12:46:50;;;;;;;21.83;11.73;;;-3.20;75.30;;;;;;5004158;28;20200;-83
2022/12/13 12:49:50;;;;;;;22.40;10.73;;;-3.30;76.40;;;;;;5010614;28;20294;-81
2022/12/13 12:52:33;;;;;;;24.50;11.20;;;-3.20;75.70;;;;;;5006240;28;20191;-82
2022/12/13 12:55:12;;;;;;;23.70;12.20;;;-3.30;76.50;;;;;;5007150;28;20228;-82
2022/12/13 13:01:17;;;;;;;21.47;11.67;;;-3.40;77.80;;;;;;5009807;28;20234;-82
2022/12/13 13:04:24;;;;;;;19.00;11.00;;;-3.50;77.90;;;;;;5002715;28;20599;-82
2022/12/13 13:06:55;;;;;;;21.67;10.50;;;-3.50;77.80;;;;;;5011326;28;20300;-82
2022/12/13 13:09:25;;;;;;;26.43;11.97;;;-3.50;78.50;;;;;;5002303;28;20306;-83
2022/12/13 13:12:26;;;;;;;20.80;11.03;;;-3.50;79.90;;;;;;5004750;28;20257;-83
2022/12/13 13:15:43;;;;;;;22.57;11.13;;;-3.40;78.70;;;;;;5005417;28;20276;-83
2022/12/13 13:18:44;;;;;;;21.17;11.37;;;-3.50;78.90;;;;;;5003149;28;20203;-84
2022/12/13 13:21:54;;;;;;;18.30;10.43;;;-3.40;78.00;;;;;;5009534;28;20317;-84
2022/12/13 13:24:58;;;;;;;23.43;10.93;;;-3.50;77.70;;;;;;5008770;28;20286;-83
2022/12/13 13:27:36;;;;;;;24.93;11.77;;;-3.60;79.00;;;;;;4999828;28;20594;-84
2022/12/13 13:30:19;;;;;;;26.17;10.83;;;-3.70;81.00;;;;;;5005854;28;20203;-83
2022/12/13 13:33:43;;;;;;;21.53;10.40;;;-3.70;80.50;;;;;;5018425;28;20580;-83